Dixiana, South Carolina
Current Conditions -  °F | °C
As of 9:56 PM on Wednesday 22 Oct 2014 (Local Time) from KCAE Reporting Station
Clear Clear  
Wind Chill: 58°   Ceiling: Unl
Heat Index: 58°   Visibility: 10mi
Dew Point: 42°   Wind: 7mph
Humidity: 56%   Direction: 350°N
Pressure: 30.09"   Gusts: NA
Location:  33.9973°N, 81.0998°W
Report Text: KCAE 230156Z 35006KT 10SM CLR 14/06 A3009 RMK AO2 SLP187 T01440056
Loading
Personal Weather Stations






























Interactive Weather Map
Tropical Storm Tracking
New forecast layout! Learn more

10-Day Weather Forecast

Advertisements
Track Severe Weather on mobile